createdAt,value
2023-04-18T00:00:25.502Z,14.20
2023-04-18T00:02:54.215Z,15.25
2023-04-18T00:05:22.167Z,14.20
2023-04-18T00:07:49.176Z,13.43
2023-04-18T00:10:17.207Z,13.80
2023-04-18T00:12:44.578Z,15.65
2023-04-18T00:15:12.581Z,15.35
2023-04-18T00:17:40.121Z,12.30
2023-04-18T00:20:10.839Z,12.20
2023-04-18T00:22:42.608Z,15.77
2023-04-18T00:25:11.055Z,13.05
2023-04-18T00:27:41.851Z,12.55
2023-04-18T00:30:09.418Z,15.80
2023-04-18T00:32:38.094Z,12.20
2023-04-18T00:35:05.786Z,12.65
2023-04-18T00:37:32.649Z,11.93
2023-04-18T00:39:59.625Z,12.43
2023-04-18T00:42:29.331Z,12.65
2023-04-18T00:44:56.425Z,15.70
2023-04-18T00:47:23.631Z,12.82
2023-04-18T00:49:51.728Z,11.73
2023-04-18T00:52:19.487Z,13.52
2023-04-18T00:54:47.548Z,14.18
2023-04-18T00:57:15.030Z,12.38
2023-04-18T00:59:42.652Z,12.60
2023-04-18T01:02:09.591Z,12.43
2023-04-18T01:04:37.447Z,12.48
2023-04-18T01:07:05.092Z,14.95
2023-04-18T01:09:33.463Z,10.80
2023-04-18T01:12:00.515Z,12.23
2023-04-18T01:14:27.390Z,12.02
2023-04-18T01:16:54.249Z,13.20
2023-04-18T01:19:21.727Z,11.98
2023-04-18T01:21:48.596Z,13.82
2023-04-18T01:24:17.166Z,12.45
2023-04-18T01:26:47.844Z,11.90
2023-04-18T01:29:15.418Z,10.75
2023-04-18T01:31:42.951Z,9.60
2023-04-18T01:34:10.292Z,12.10
2023-04-18T01:36:38.750Z,11.75
2023-04-18T01:39:06.187Z,12.32
2023-04-18T01:41:33.535Z,11.13
2023-04-18T01:44:01.060Z,14.10
2023-04-18T01:46:29.297Z,12.32
2023-04-18T01:48:57.132Z,13.35
2023-04-18T01:51:24.215Z,10.45
2023-04-18T01:53:53.920Z,12.32
2023-04-18T01:56:21.171Z,14.63
2023-04-18T01:58:48.117Z,14.48
2023-04-18T02:01:15.205Z,11.50
2023-04-18T02:03:43.200Z,12.50
2023-04-18T02:06:10.777Z,16.80
2023-04-18T02:08:37.724Z,11.48
2023-04-18T02:11:05.661Z,13.57
2023-04-18T02:13:32.939Z,13.45
2023-04-18T02:16:00.078Z,12.63
2023-04-18T02:18:27.398Z,12.95
2023-04-18T02:20:54.217Z,14.20
2023-04-18T02:23:22.407Z,16.55
2023-04-18T02:25:49.975Z,15.13
2023-04-18T02:28:17.894Z,16.75
2023-04-18T02:30:45.011Z,14.98
2023-04-18T02:33:12.239Z,14.45
2023-04-18T02:35:39.293Z,14.80
2023-04-18T02:38:06.573Z,13.60
2023-04-18T02:40:33.427Z,16.30
2023-04-18T02:43:00.707Z,14.85
2023-04-18T02:45:28.617Z,13.48
2023-04-18T02:47:58.865Z,15.27
2023-04-18T02:50:25.933Z,16.48
2023-04-18T02:52:55.435Z,14.80
2023-04-18T02:55:27.281Z,16.58
2023-04-18T03:00:53.978Z,15.68
2023-04-18T03:03:41.419Z,12.05
2023-04-18T03:06:34.502Z,16.13
2023-04-18T03:09:04.254Z,15.77
2023-04-18T03:11:34.574Z,16.30
2023-04-18T03:14:02.082Z,16.10
2023-04-18T03:16:36.612Z,11.90
2023-04-18T03:19:05.846Z,16.13
2023-04-18T03:21:33.787Z,15.40
2023-04-18T03:24:00.862Z,15.65
2023-04-18T03:26:28.574Z,14.95
2023-04-18T03:28:56.898Z,11.52
2023-04-18T03:31:24.735Z,14.93
2023-04-18T03:33:51.883Z,15.73
2023-04-18T03:36:25.604Z,12.13
2023-04-18T03:38:54.940Z,15.85
2023-04-18T03:41:22.090Z,14.32
2023-04-18T03:43:49.464Z,15.43
2023-04-18T03:46:17.659Z,15.73
2023-04-18T03:48:45.689Z,16.70
2023-04-18T03:51:12.519Z,13.75
2023-04-18T03:53:39.869Z,14.70
2023-04-18T03:56:07.437Z,12.00
2023-04-18T03:58:49.655Z,15.43
2023-04-18T04:01:17.910Z,14.50
2023-04-18T04:03:45.478Z,13.55
2023-04-18T04:06:12.559Z,14.98
2023-04-18T04:08:39.392Z,13.60
2023-04-18T04:11:06.295Z,15.98
2023-04-18T04:13:33.673Z,13.60
2023-04-18T04:16:01.019Z,13.02
2023-04-18T04:18:31.411Z,15.00
2023-04-18T04:21:01.419Z,13.38
2023-04-18T04:23:38.330Z,14.35
2023-04-18T04:26:05.930Z,12.30
2023-04-18T04:28:43.005Z,13.32
2023-04-18T04:31:11.227Z,13.32
2023-04-18T04:33:39.421Z,14.35
2023-04-18T04:36:17.339Z,15.50
2023-04-18T04:38:47.894Z,12.82
2023-04-18T04:41:15.700Z,15.15
2023-04-18T04:43:43.194Z,17.38
2023-04-18T04:46:13.997Z,14.73
2023-04-18T04:48:43.016Z,14.00
2023-04-18T04:51:09.880Z,14.30
2023-04-18T04:53:36.845Z,13.50
2023-04-18T04:56:05.028Z,12.65
2023-04-18T04:58:33.954Z,14.88
2023-04-18T05:01:10.311Z,16.38
2023-04-18T05:03:38.107Z,14.82
2023-04-18T05:06:05.798Z,12.10
2023-04-18T05:08:32.789Z,15.65
2023-04-18T05:11:02.727Z,16.02
2023-04-18T05:13:29.702Z,13.98
2023-04-18T05:15:57.063Z,12.27
2023-04-18T05:18:24.211Z,13.23
2023-04-18T05:20:51.249Z,12.23
2023-04-18T05:23:18.232Z,8.32
2023-04-18T05:25:45.092Z,12.00
2023-04-18T05:28:11.908Z,10.77
2023-04-18T05:30:40.128Z,12.68
2023-04-18T05:33:07.217Z,10.27
2023-04-18T05:35:34.338Z,14.27
2023-04-18T05:38:01.170Z,10.40
2023-04-18T05:40:29.234Z,13.95
2023-04-18T05:42:56.382Z,12.23
2023-04-18T05:45:23.739Z,8.50
2023-04-18T05:47:51.514Z,11.25
2023-04-18T05:50:18.892Z,13.35
2023-04-18T05:52:46.453Z,12.60
2023-04-18T05:55:13.457Z,10.52
2023-04-18T05:57:41.744Z,11.82
2023-04-18T06:00:12.506Z,12.98
2023-04-18T06:02:42.392Z,10.60
2023-04-18T06:05:10.233Z,13.35
2023-04-18T06:07:37.248Z,10.05
2023-04-18T06:10:07.717Z,11.30
2023-04-18T06:12:34.678Z,11.52
2023-04-18T06:15:02.198Z,9.45
2023-04-18T06:17:29.202Z,8.57
2023-04-18T06:19:56.141Z,9.85
2023-04-18T06:22:23.331Z,9.35
2023-04-18T06:24:55.750Z,11.65
2023-04-18T06:27:31.653Z,7.60
2023-04-18T06:29:59.661Z,11.07
2023-04-18T06:32:26.683Z,10.82
2023-04-18T06:34:56.168Z,10.63
2023-04-18T06:37:26.372Z,10.48
2023-04-18T06:39:53.332Z,9.85
2023-04-18T06:42:22.380Z,10.57
2023-04-18T06:44:50.176Z,7.00
2023-04-18T06:47:17.237Z,11.15
2023-04-18T06:49:44.046Z,10.15
2023-04-18T06:52:10.859Z,7.60
2023-04-18T06:54:37.690Z,8.55
2023-04-18T06:57:04.906Z,8.13
2023-04-18T06:59:32.105Z,11.73
2023-04-18T07:01:58.925Z,6.55
2023-04-18T07:04:25.997Z,10.60
2023-04-18T07:06:53.374Z,8.63
2023-04-18T07:09:21.145Z,9.93
2023-04-18T07:11:47.995Z,7.80
2023-04-18T07:14:16.773Z,9.55
2023-04-18T07:16:43.885Z,8.43
2023-04-18T07:19:10.753Z,9.07
2023-04-18T07:21:38.999Z,7.82
2023-04-18T07:24:06.437Z,7.80
2023-04-18T07:26:33.333Z,9.02
2023-04-18T07:29:00.473Z,8.15
2023-04-18T07:31:29.043Z,10.00
2023-04-18T07:33:55.961Z,7.35
2023-04-18T07:36:22.991Z,8.23
2023-04-18T07:38:55.562Z,8.60
2023-04-18T07:41:22.360Z,6.03
2023-04-18T07:43:49.150Z,4.45
2023-04-18T07:46:16.708Z,9.68
2023-04-18T07:48:43.982Z,7.82
2023-04-18T07:51:11.868Z,6.00
2023-04-18T07:53:39.870Z,9.52
2023-04-18T07:56:07.033Z,6.10
2023-04-18T07:58:36.703Z,7.35
2023-04-18T08:01:07.988Z,5.20
2023-04-18T08:03:36.671Z,6.22
2023-04-18T08:06:06.583Z,8.82
2023-04-18T08:08:34.317Z,7.05
2023-04-18T08:11:01.405Z,8.50
2023-04-18T08:13:28.486Z,7.63
2023-04-18T08:15:56.398Z,6.07
2023-04-18T08:18:23.790Z,12.13
2023-04-18T08:20:50.848Z,9.35
2023-04-18T08:23:17.845Z,9.40
2023-04-18T08:25:46.043Z,11.02
2023-04-18T08:28:16.296Z,9.35
2023-04-18T08:30:49.368Z,7.68
2023-04-18T08:33:19.201Z,6.18
2023-04-18T08:35:48.431Z,7.40
2023-04-18T08:38:18.268Z,7.07
2023-04-18T08:40:51.103Z,6.57
2023-04-18T08:43:20.626Z,7.55
2023-04-18T08:45:48.572Z,6.40
2023-04-18T08:48:18.775Z,6.35
2023-04-18T08:50:51.329Z,7.25
2023-04-18T08:53:19.213Z,7.57
2023-04-18T08:55:53.317Z,6.00
2023-04-18T08:58:23.888Z,8.80
2023-04-18T09:00:52.412Z,7.43
2023-04-18T09:03:42.798Z,4.47
2023-04-18T09:06:19.426Z,4.93
2023-04-18T09:09:02.953Z,5.68
2023-04-18T09:11:31.916Z,4.85
2023-04-18T09:14:02.660Z,4.00
2023-04-18T09:16:45.864Z,5.13
2023-04-18T09:19:18.735Z,5.05
2023-04-18T09:21:49.059Z,6.30
2023-04-18T09:24:22.952Z,5.88
2023-04-18T09:26:50.980Z,5.15
2023-04-18T09:29:24.081Z,6.03
2023-04-18T09:32:01.662Z,4.65
2023-04-18T09:37:06.139Z,5.30
2023-04-18T09:39:33.382Z,3.30
2023-04-18T09:42:01.574Z,5.72
2023-04-18T09:44:28.964Z,4.35
2023-04-18T09:46:56.055Z,3.92
2023-04-18T09:49:23.390Z,3.78
2023-04-18T09:51:56.290Z,6.53
2023-04-18T09:54:25.471Z,4.57
2023-04-18T09:56:54.463Z,6.82
2023-04-18T09:59:35.827Z,7.43
2023-04-18T10:02:04.203Z,6.32
2023-04-18T10:04:32.983Z,4.60
2023-04-18T10:07:01.803Z,5.68
2023-04-18T10:09:33.378Z,6.13
2023-04-18T10:12:03.164Z,8.80
2023-04-18T10:14:33.826Z,7.30
2023-04-18T10:17:01.294Z,4.75
2023-04-18T10:19:30.155Z,7.28
2023-04-18T10:21:59.568Z,6.93
2023-04-18T10:24:45.427Z,6.78
2023-04-18T10:27:12.294Z,9.05
2023-04-18T10:29:50.460Z,7.28
2023-04-18T10:32:18.805Z,7.40
2023-04-18T10:34:47.562Z,6.38
2023-04-18T10:37:14.750Z,8.30
2023-04-18T10:39:57.730Z,6.63
2023-04-18T10:42:54.236Z,7.07
2023-04-18T10:45:25.881Z,5.30
2023-04-18T10:48:22.163Z,5.80
2023-04-18T10:51:16.359Z,5.85
2023-04-18T10:53:56.838Z,6.57
2023-04-18T10:56:25.731Z,8.30
2023-04-18T10:58:53.510Z,6.63
2023-04-18T11:01:31.732Z,7.80
2023-04-18T11:04:00.253Z,6.35
2023-04-18T11:06:27.890Z,7.30
2023-04-18T11:09:14.611Z,7.22
2023-04-18T11:11:44.316Z,9.65
2023-04-18T11:14:11.844Z,8.15
2023-04-18T11:16:40.215Z,7.43
2023-04-18T11:19:29.252Z,9.85
2023-04-18T11:22:02.144Z,5.85
2023-04-18T11:24:29.572Z,6.88
2023-04-18T11:26:57.489Z,8.18
2023-04-18T11:29:24.506Z,6.75
2023-04-18T11:31:55.774Z,6.38
2023-04-18T11:34:29.435Z,6.97
2023-04-18T11:36:58.140Z,7.28
2023-04-18T11:39:25.146Z,8.35
2023-04-18T11:41:52.076Z,6.68
2023-04-18T11:44:24.567Z,7.93
2023-04-18T11:46:52.586Z,8.85
2023-04-18T11:49:30.835Z,5.05
2023-04-18T11:52:01.700Z,7.18
2023-04-18T11:54:42.956Z,8.07
2023-04-18T11:57:30.255Z,9.38
2023-04-18T11:59:59.352Z,9.23
2023-04-18T12:02:28.431Z,9.85
2023-04-18T12:04:59.323Z,9.63
2023-04-18T12:07:33.080Z,6.03
2023-04-18T12:10:00.182Z,8.43
2023-04-18T12:12:27.348Z,9.80
2023-04-18T12:15:13.911Z,11.85
2023-04-18T12:17:48.833Z,9.82
2023-04-18T12:20:16.273Z,10.55
2023-04-18T12:22:49.760Z,8.90
2023-04-18T12:25:24.394Z,8.23
2023-04-18T12:28:16.927Z,9.25
2023-04-18T12:30:43.964Z,10.60
2023-04-18T12:33:11.257Z,11.80
2023-04-18T12:35:38.324Z,10.52
2023-04-18T12:38:06.285Z,9.00
2023-04-18T12:40:33.296Z,10.00
2023-04-18T12:43:08.227Z,9.80
2023-04-18T12:45:35.228Z,9.43
2023-04-18T12:48:02.489Z,12.63
2023-04-18T12:50:29.559Z,8.23
2023-04-18T12:52:58.445Z,9.32
2023-04-18T12:55:26.425Z,11.15
2023-04-18T12:57:54.896Z,7.35
2023-04-18T13:00:26.232Z,8.00
2023-04-18T13:02:57.089Z,10.20
2023-04-18T13:05:27.323Z,10.57
2023-04-18T13:08:08.708Z,12.25
2023-04-18T13:10:42.650Z,8.98
2023-04-18T13:13:09.544Z,11.50
2023-04-18T13:15:36.513Z,9.57
2023-04-18T13:18:06.509Z,13.93
2023-04-18T13:20:34.433Z,11.35
2023-04-18T13:23:03.176Z,10.45
2023-04-18T13:25:30.159Z,10.30
2023-04-18T13:27:58.772Z,9.55
2023-04-18T13:30:26.035Z,9.68
2023-04-18T13:32:53.134Z,12.23
2023-04-18T13:35:20.361Z,10.70
2023-04-18T13:37:47.399Z,10.20
2023-04-18T13:40:14.794Z,10.88
2023-04-18T13:42:41.854Z,7.00
2023-04-18T13:45:09.301Z,11.05
2023-04-18T13:47:37.601Z,11.93
2023-04-18T13:50:05.617Z,10.82
2023-04-18T13:52:33.000Z,13.27
2023-04-18T13:55:00.199Z,12.40
2023-04-18T13:57:28.559Z,11.88
2023-04-18T13:59:55.459Z,11.40
2023-04-18T14:02:22.597Z,12.90
2023-04-18T14:04:49.944Z,11.30
2023-04-18T14:07:16.982Z,10.10
2023-04-18T14:09:43.989Z,12.90
2023-04-18T14:12:11.125Z,13.13
2023-04-18T14:14:38.446Z,13.90
2023-04-18T14:17:05.816Z,10.85
2023-04-18T14:19:33.072Z,15.68
2023-04-18T14:22:02.153Z,12.52
2023-04-18T14:24:28.906Z,10.23
2023-04-18T14:26:55.843Z,14.55
2023-04-18T14:29:22.837Z,10.25
2023-04-18T14:31:50.791Z,12.77
2023-04-18T14:34:17.937Z,12.27
2023-04-18T14:36:44.976Z,14.13
2023-04-18T14:39:12.133Z,17.05
2023-04-18T14:41:39.726Z,12.65
2023-04-18T14:44:06.633Z,14.25
2023-04-18T14:46:33.450Z,13.98
2023-04-18T14:49:00.567Z,13.40
2023-04-18T14:51:27.869Z,12.95
2023-04-18T14:53:55.782Z,9.55
2023-04-18T14:56:24.633Z,10.77
2023-04-18T14:58:51.407Z,13.18
2023-04-18T15:01:18.646Z,13.85
2023-04-18T15:03:45.851Z,12.77
2023-04-18T15:06:13.176Z,11.77
2023-04-18T15:08:40.280Z,12.00
2023-04-18T15:11:08.221Z,12.05
2023-04-18T15:13:35.460Z,14.73
2023-04-18T15:16:02.607Z,15.00
2023-04-18T15:18:31.113Z,13.35
2023-04-18T15:20:59.851Z,14.68
2023-04-18T15:23:27.713Z,16.17
2023-04-18T15:25:54.985Z,13.52
2023-04-18T15:28:21.831Z,12.85
2023-04-18T15:30:51.777Z,12.75
2023-04-18T15:33:20.945Z,13.65
2023-04-18T15:35:48.525Z,13.30
2023-04-18T15:38:15.664Z,12.57
2023-04-18T15:40:43.657Z,12.85
2023-04-18T15:43:10.462Z,14.77
2023-04-18T15:45:37.409Z,14.30
2023-04-18T15:48:04.582Z,14.88
2023-04-18T15:50:33.371Z,13.73
2023-04-18T15:53:02.588Z,14.98
2023-04-18T15:55:29.784Z,14.68
2023-04-18T15:57:56.814Z,16.95
2023-04-18T16:00:24.060Z,14.35
2023-04-18T16:02:51.035Z,12.38
2023-04-18T16:05:19.134Z,13.15
2023-04-18T16:07:46.124Z,14.48
2023-04-18T16:10:13.831Z,16.42
2023-04-18T16:12:41.123Z,15.43
2023-04-18T16:15:09.545Z,12.07
2023-04-18T16:17:37.737Z,11.70
2023-04-18T16:20:09.244Z,15.52
2023-04-18T16:22:37.039Z,14.23
2023-04-18T16:25:05.744Z,13.75
2023-04-18T16:27:33.325Z,14.15
2023-04-18T16:30:00.364Z,11.52
2023-04-18T16:32:27.698Z,11.07
2023-04-18T16:34:54.978Z,11.35
2023-04-18T16:37:22.163Z,12.57
2023-04-18T16:39:49.426Z,12.80
2023-04-18T16:42:16.450Z,17.95
2023-04-18T16:44:45.263Z,13.23
2023-04-18T16:47:13.616Z,14.13
2023-04-18T16:49:41.487Z,13.30
2023-04-18T16:52:09.840Z,13.65
2023-04-18T16:54:37.068Z,15.27
2023-04-18T16:57:07.529Z,16.27
2023-04-18T16:59:35.036Z,14.82
2023-04-18T17:02:01.862Z,13.00
2023-04-18T17:04:29.894Z,12.38
2023-04-18T17:06:56.953Z,12.05
2023-04-18T17:09:24.728Z,12.10
2023-04-18T17:11:52.059Z,14.45
2023-04-18T17:14:21.376Z,12.38
2023-04-18T17:16:49.607Z,13.23
2023-04-18T17:19:18.165Z,13.65
2023-04-18T17:21:45.173Z,13.10
2023-04-18T17:24:12.142Z,15.13
2023-04-18T17:26:39.434Z,11.57
2023-04-18T17:29:06.459Z,15.32
2023-04-18T17:31:34.489Z,12.93
2023-04-18T17:34:04.660Z,10.07
2023-04-18T17:36:31.791Z,7.85
2023-04-18T17:39:08.396Z,8.20
2023-04-18T17:41:38.074Z,7.43
2023-04-18T17:44:07.687Z,6.25
2023-04-18T17:46:34.732Z,7.57
2023-04-18T17:49:01.695Z,10.07
2023-04-18T17:51:28.874Z,8.10
2023-04-18T17:53:55.700Z,8.15
2023-04-18T17:56:22.992Z,6.90
2023-04-18T17:58:49.815Z,7.32
2023-04-18T18:01:17.877Z,7.60
2023-04-18T18:03:45.842Z,8.88
2023-04-18T18:06:13.635Z,7.97
2023-04-18T18:08:42.298Z,9.20
2023-04-18T18:11:10.516Z,8.60
2023-04-18T18:13:39.422Z,9.80
2023-04-18T18:16:06.808Z,8.38
2023-04-18T18:18:34.458Z,10.20
2023-04-18T18:21:01.521Z,11.80
2023-04-18T18:23:29.830Z,8.57
2023-04-18T18:25:56.825Z,9.00
2023-04-18T18:28:24.545Z,9.57
2023-04-18T18:30:51.487Z,9.15
2023-04-18T18:33:18.758Z,11.52
2023-04-18T18:35:46.045Z,9.93
2023-04-18T18:38:12.977Z,10.73
2023-04-18T18:40:40.368Z,11.77
2023-04-18T18:43:07.700Z,9.75
2023-04-18T18:45:38.466Z,9.68
2023-04-18T18:48:08.596Z,7.38
2023-04-18T18:50:35.738Z,9.48
2023-04-18T18:53:03.253Z,8.88
2023-04-18T18:55:33.558Z,9.07
2023-04-18T18:58:02.840Z,9.00
2023-04-18T19:00:29.905Z,11.35
2023-04-18T19:02:57.513Z,10.18
2023-04-18T19:05:27.110Z,9.57
2023-04-18T19:07:54.111Z,9.52
2023-04-18T19:10:21.404Z,11.40
2023-04-18T19:12:48.558Z,11.65
2023-04-18T19:15:16.178Z,10.38
2023-04-18T19:17:43.554Z,10.20
2023-04-18T19:20:10.799Z,7.70
2023-04-18T19:22:38.310Z,10.52
2023-04-18T19:25:05.827Z,10.10
2023-04-18T19:27:32.771Z,9.95
2023-04-18T19:29:59.553Z,10.00
2023-04-18T19:32:27.159Z,8.65
2023-04-18T19:34:54.249Z,9.18
2023-04-18T19:37:21.357Z,7.57
2023-04-18T19:39:48.453Z,7.85
2023-04-18T19:42:15.926Z,10.60
2023-04-18T19:44:42.833Z,11.00
2023-04-18T19:47:09.608Z,10.55
2023-04-18T19:49:37.023Z,10.75
2023-04-18T19:52:04.241Z,11.50
2023-04-18T19:54:34.362Z,9.32
2023-04-18T19:57:01.617Z,10.00
2023-04-18T19:59:28.778Z,11.68
2023-04-18T20:01:57.226Z,12.57
2023-04-18T20:04:26.145Z,10.60
2023-04-18T20:06:54.413Z,10.55
2023-04-18T20:09:21.240Z,10.73
2023-04-18T20:11:48.781Z,9.38
2023-04-18T20:14:15.967Z,9.60
2023-04-18T20:16:43.320Z,11.57
2023-04-18T20:19:12.703Z,11.60
2023-04-18T20:21:39.946Z,11.55
2023-04-18T20:24:10.014Z,12.90
2023-04-18T20:26:36.957Z,11.85
2023-04-18T20:29:04.716Z,10.73
2023-04-18T20:31:31.679Z,9.85
2023-04-18T20:33:58.645Z,11.75
2023-04-18T20:36:25.469Z,12.30
2023-04-18T20:38:52.833Z,10.50
2023-04-18T20:41:21.166Z,9.57
2023-04-18T20:43:48.268Z,9.77
2023-04-18T20:46:16.301Z,14.90
2023-04-18T20:48:44.483Z,11.65
2023-04-18T20:51:11.306Z,12.27
2023-04-18T20:53:38.553Z,11.73
2023-04-18T20:56:05.642Z,11.85
2023-04-18T20:58:32.746Z,12.45
2023-04-18T21:00:59.680Z,14.38
2023-04-18T21:03:26.704Z,11.00
2023-04-18T21:05:53.887Z,12.30
2023-04-18T21:08:20.768Z,11.40
2023-04-18T21:10:47.652Z,12.20
2023-04-18T21:13:14.756Z,11.30
2023-04-18T21:15:45.477Z,11.45
2023-04-18T21:18:12.767Z,11.43
2023-04-18T21:20:40.271Z,11.10
2023-04-18T21:23:07.245Z,12.07
2023-04-18T21:25:34.450Z,12.45
2023-04-18T21:28:01.353Z,11.63
2023-04-18T21:30:28.801Z,12.25
2023-04-18T21:32:55.862Z,9.57
2023-04-18T21:35:24.678Z,11.38
2023-04-18T21:37:53.299Z,12.23
2023-04-18T21:40:20.751Z,11.32
2023-04-18T21:42:50.911Z,10.85
2023-04-18T21:45:18.504Z,11.35
2023-04-18T21:47:46.061Z,11.40
2023-04-18T21:50:13.082Z,10.80
2023-04-18T21:52:39.867Z,10.00
2023-04-18T21:55:06.966Z,10.98
2023-04-18T21:57:34.111Z,12.18
2023-04-18T22:00:01.336Z,9.05
2023-04-18T22:02:36.329Z,10.50
2023-04-18T22:05:03.686Z,13.77
2023-04-18T22:07:31.545Z,10.20
2023-04-18T22:09:59.958Z,8.85
2023-04-18T22:12:27.593Z,10.65
2023-04-18T22:14:55.166Z,11.25
2023-04-18T22:17:22.950Z,10.10
2023-04-18T22:19:50.685Z,9.73
2023-04-18T22:22:17.765Z,10.27
2023-04-18T22:24:47.968Z,10.40
2023-04-18T22:27:15.447Z,12.05
2023-04-18T22:29:42.646Z,12.13
2023-04-18T22:32:09.612Z,11.07
2023-04-18T22:34:36.534Z,11.82
2023-04-18T22:37:03.599Z,10.43
2023-04-18T22:39:31.447Z,10.50
2023-04-18T22:41:58.162Z,9.93
2023-04-18T22:44:25.006Z,11.60
2023-04-18T22:46:55.195Z,12.10
2023-04-18T22:49:23.347Z,11.60
2023-04-18T22:51:54.616Z,11.98
2023-04-18T22:54:23.667Z,11.55
2023-04-18T22:56:50.676Z,11.30
2023-04-18T22:59:18.003Z,10.48
2023-04-18T23:01:45.454Z,11.52
2023-04-18T23:04:12.574Z,11.45
2023-04-18T23:06:40.030Z,11.48
2023-04-18T23:09:09.896Z,10.32
2023-04-18T23:11:36.734Z,12.13
2023-04-18T23:14:04.054Z,11.65
2023-04-18T23:16:32.913Z,11.93
2023-04-18T23:18:59.859Z,11.15
2023-04-18T23:21:28.294Z,11.68
2023-04-18T23:23:55.189Z,13.52
2023-04-18T23:26:22.910Z,11.73
2023-04-18T23:28:50.353Z,14.20
2023-04-18T23:31:17.700Z,11.55
2023-04-18T23:33:45.609Z,11.73
2023-04-18T23:36:13.614Z,13.75
2023-04-18T23:38:41.264Z,12.18
2023-04-18T23:41:09.566Z,12.35
2023-04-18T23:43:36.631Z,13.43
2023-04-18T23:46:04.116Z,14.23
2023-04-18T23:48:31.116Z,13.88
2023-04-18T23:50:58.021Z,15.38
2023-04-18T23:53:26.126Z,14.30
2023-04-18T23:55:53.571Z,13.95
2023-04-18T23:58:20.467Z,16.30
